createdAt,value
2022-12-15T00:03:40.873Z,10.52
2022-12-15T00:08:01.116Z,10.32
2022-12-15T00:12:21.487Z,11.10
2022-12-15T00:16:41.939Z,12.25
2022-12-15T00:21:02.440Z,11.05
2022-12-15T00:25:22.944Z,11.10
2022-12-15T00:29:43.302Z,10.50
2022-12-15T00:34:03.637Z,10.52
2022-12-15T00:38:32.768Z,12.13
2022-12-15T00:42:34.460Z,12.20
2022-12-15T00:46:54.369Z,11.63
2022-12-15T00:50:56.095Z,11.07
2022-12-15T00:55:16.247Z,11.68
2022-12-15T00:59:36.597Z,12.70
2022-12-15T01:03:57.159Z,14.60
2022-12-15T01:08:18.928Z,15.40
2022-12-15T01:12:39.494Z,14.20
2022-12-15T01:17:00.095Z,14.07
2022-12-15T01:21:05.320Z,14.30
2022-12-15T01:25:09.098Z,15.20
2022-12-15T01:29:10.758Z,16.23
2022-12-15T01:33:13.388Z,16.15
2022-12-15T01:37:15.275Z,16.52
2022-12-15T01:41:17.008Z,15.57
2022-12-15T01:45:25.030Z,18.00
2022-12-15T01:49:31.236Z,15.95
2022-12-15T01:53:37.705Z,16.70
2022-12-15T01:57:39.805Z,16.62
2022-12-15T02:01:41.631Z,16.35
2022-12-15T02:05:43.458Z,17.62
2022-12-15T02:09:48.149Z,18.33
2022-12-15T02:14:01.886Z,18.42
2022-12-15T02:18:42.974Z,19.58
2022-12-15T02:23:15.233Z,19.45
2022-12-15T02:27:34.151Z,19.65
2022-12-15T02:32:08.692Z,18.80
2022-12-15T02:36:25.671Z,18.37
2022-12-15T02:44:38.135Z,19.70
2022-12-15T02:49:09.378Z,17.48
2022-12-15T02:53:31.659Z,17.62
2022-12-15T02:57:42.052Z,18.27
2022-12-15T03:01:51.229Z,18.17
2022-12-15T03:05:54.583Z,18.10
2022-12-15T03:09:58.568Z,19.52
2022-12-15T03:14:00.227Z,18.42
2022-12-15T03:18:01.864Z,18.15
2022-12-15T03:22:04.209Z,17.90
2022-12-15T03:26:06.549Z,19.50
2022-12-15T03:30:08.680Z,18.33
2022-12-15T03:34:11.044Z,19.60
2022-12-15T03:38:13.160Z,18.85
2022-12-15T03:42:34.782Z,19.27
2022-12-15T03:46:36.415Z,18.85
2022-12-15T03:50:38.076Z,18.25
2022-12-15T03:54:39.694Z,19.02
2022-12-15T03:58:41.574Z,18.45
2022-12-15T04:02:44.166Z,21.00
2022-12-15T04:06:46.079Z,20.02
2022-12-15T04:10:47.918Z,20.37
2022-12-15T04:14:49.706Z,21.02
2022-12-15T04:19:11.354Z,21.15
2022-12-15T04:23:14.469Z,20.80
2022-12-15T04:27:34.879Z,20.55
2022-12-15T04:31:55.334Z,19.90
2022-12-15T04:36:15.980Z,20.75
2022-12-15T04:40:36.564Z,20.90
2022-12-15T04:44:56.907Z,19.00
2022-12-15T04:49:17.362Z,19.98
2022-12-15T04:53:38.409Z,20.10
2022-12-15T04:57:59.411Z,18.62
2022-12-15T05:02:20.316Z,19.55
2022-12-15T05:06:40.639Z,19.12
2022-12-15T05:11:01.051Z,19.23
2022-12-15T05:15:21.475Z,17.70
2022-12-15T05:19:42.146Z,18.80
2022-12-15T05:24:02.492Z,18.45
2022-12-15T05:28:25.932Z,20.67
2022-12-15T05:32:27.531Z,19.17
2022-12-15T05:36:29.167Z,19.95
2022-12-15T05:40:30.834Z,21.60
2022-12-15T05:44:32.498Z,18.98
2022-12-15T05:48:34.114Z,21.37
2022-12-15T05:52:35.738Z,22.77
2022-12-15T05:56:38.091Z,21.50
2022-12-15T06:00:39.702Z,20.98
2022-12-15T06:04:41.364Z,20.92
2022-12-15T06:08:43.732Z,22.62
2022-12-15T06:12:45.344Z,22.02
2022-12-15T06:16:50.259Z,23.10
2022-12-15T06:21:05.272Z,24.58
2022-12-15T06:25:07.400Z,24.80
2022-12-15T06:29:11.829Z,26.30
2022-12-15T06:33:13.634Z,26.60
2022-12-15T06:37:15.256Z,26.12
2022-12-15T06:41:18.717Z,24.42
2022-12-15T06:45:20.328Z,27.08
2022-12-15T06:49:21.970Z,26.40
2022-12-15T06:53:24.243Z,24.75
2022-12-15T06:57:25.857Z,25.62
2022-12-15T07:01:27.795Z,24.87
2022-12-15T07:05:29.940Z,25.35
2022-12-15T07:09:31.508Z,22.60
2022-12-15T07:13:34.346Z,24.17
2022-12-15T07:17:36.923Z,23.67
2022-12-15T07:21:38.618Z,25.00
2022-12-15T07:25:40.306Z,23.58
2022-12-15T07:29:42.136Z,22.17
2022-12-15T07:33:43.819Z,21.77
2022-12-15T07:37:45.823Z,20.65
2022-12-15T07:41:47.463Z,20.52
2022-12-15T07:45:53.213Z,21.15
2022-12-15T07:49:54.891Z,20.80
2022-12-15T07:53:56.621Z,22.90
2022-12-15T07:57:58.249Z,21.83
2022-12-15T08:02:01.444Z,22.20
2022-12-15T08:06:05.375Z,23.83
2022-12-15T08:10:07.317Z,23.65
2022-12-15T08:14:14.944Z,23.05
2022-12-15T08:18:18.558Z,23.90
2022-12-15T08:22:20.217Z,25.42
2022-12-15T08:26:28.211Z,23.55
2022-12-15T08:30:33.136Z,27.77
2022-12-15T08:34:35.354Z,25.90
2022-12-15T08:38:38.738Z,25.27
2022-12-15T08:42:40.483Z,26.10
2022-12-15T08:46:42.132Z,24.77
2022-12-15T08:50:46.877Z,23.83
2022-12-15T08:54:49.534Z,25.33
2022-12-15T08:58:56.051Z,24.92
2022-12-15T09:03:00.112Z,26.75
2022-12-15T09:07:01.986Z,24.83
2022-12-15T09:11:05.568Z,28.48
2022-12-15T09:15:07.748Z,26.87
2022-12-15T09:19:09.610Z,27.45
2022-12-15T09:23:11.272Z,29.55
2022-12-15T09:27:12.917Z,30.30
2022-12-15T09:31:29.001Z,30.42
2022-12-15T09:35:30.703Z,28.30
2022-12-15T09:39:32.435Z,28.70
2022-12-15T09:43:35.396Z,29.87
2022-12-15T09:48:00.755Z,31.27
2022-12-15T09:52:23.029Z,32.38
2022-12-15T09:56:49.764Z,32.35
2022-12-15T10:01:36.110Z,30.80
2022-12-15T10:06:15.408Z,31.75
2022-12-15T10:10:29.492Z,31.20
2022-12-15T10:14:32.960Z,32.30
2022-12-15T10:19:15.501Z,33.83
2022-12-15T10:23:17.836Z,32.58
2022-12-15T10:27:43.094Z,33.90
2022-12-15T10:31:55.508Z,32.33
2022-12-15T10:35:57.301Z,32.10
2022-12-15T10:39:58.890Z,29.73
2022-12-15T10:44:02.513Z,32.05
2022-12-15T10:48:06.618Z,32.78
2022-12-15T10:52:21.147Z,30.95
2022-12-15T10:56:32.766Z,33.13
2022-12-15T11:00:35.799Z,31.58
2022-12-15T11:04:37.526Z,32.13
2022-12-15T11:08:42.591Z,31.65
2022-12-15T11:12:58.180Z,32.97
2022-12-15T11:17:00.169Z,32.50
2022-12-15T11:21:12.050Z,31.85
2022-12-15T11:25:24.908Z,32.95
2022-12-15T11:29:37.604Z,33.67
2022-12-15T11:33:39.304Z,35.20
2022-12-15T11:37:47.005Z,34.33
2022-12-15T11:42:21.316Z,34.67
2022-12-15T11:46:27.120Z,36.17
2022-12-15T11:50:39.786Z,33.92
2022-12-15T11:54:53.210Z,32.92
2022-12-15T11:59:12.001Z,33.25
2022-12-15T12:03:30.563Z,32.50
2022-12-15T12:08:14.828Z,32.72
2022-12-15T12:12:27.843Z,32.95
2022-12-15T12:16:46.003Z,30.50
2022-12-15T12:21:02.512Z,33.05
2022-12-15T12:25:16.899Z,31.92
2022-12-15T12:29:28.515Z,34.30
2022-12-15T12:33:46.871Z,33.22
2022-12-15T12:38:03.242Z,33.50
2022-12-15T12:42:09.377Z,33.80
2022-12-15T12:46:15.455Z,32.88
2022-12-15T12:50:25.832Z,33.07
2022-12-15T12:54:36.474Z,33.15
2022-12-15T12:58:41.311Z,31.37
2022-12-15T13:02:54.990Z,31.67
2022-12-15T13:07:00.397Z,31.23
2022-12-15T13:11:45.175Z,29.23
2022-12-15T13:15:51.188Z,29.73
2022-12-15T13:20:10.732Z,29.40
2022-12-15T13:24:41.220Z,28.20
2022-12-15T13:28:47.889Z,27.77
2022-12-15T13:33:13.085Z,28.40
2022-12-15T13:37:51.148Z,27.13
2022-12-15T13:42:32.760Z,28.38
2022-12-15T13:46:32.755Z,27.65
2022-12-15T13:55:25.752Z,27.95
2022-12-15T13:59:44.364Z,28.10
2022-12-15T14:04:00.163Z,27.10
2022-12-15T14:08:03.419Z,27.58
2022-12-15T14:12:10.739Z,26.58
2022-12-15T14:16:17.969Z,26.12
2022-12-15T14:20:22.584Z,24.35
2022-12-15T14:24:39.629Z,27.08
2022-12-15T14:28:47.667Z,27.55
2022-12-15T14:33:13.596Z,25.08
2022-12-15T14:37:19.511Z,25.12
2022-12-15T14:41:24.994Z,25.90
2022-12-15T14:45:30.705Z,25.20
2022-12-15T14:49:39.894Z,26.12
2022-12-15T14:53:42.676Z,27.42
2022-12-15T14:57:46.368Z,30.70
2022-12-15T15:01:58.761Z,30.95
2022-12-15T15:03:07.607Z,28.20
2022-12-15T15:06:06.075Z,28.25
2022-12-15T15:14:30.921Z,26.83
2022-12-15T15:18:33.573Z,26.75
2022-12-15T15:23:07.767Z,26.62
2022-12-15T15:27:27.327Z,27.42
2022-12-15T15:31:40.869Z,27.98
2022-12-15T15:35:44.938Z,26.12
2022-12-15T15:39:54.316Z,26.40
2022-12-15T15:44:01.451Z,27.17
2022-12-15T15:48:04.055Z,27.52
2022-12-15T15:52:05.759Z,27.62
2022-12-15T15:56:11.506Z,28.80
2022-12-15T16:00:19.107Z,30.20
2022-12-15T16:04:20.890Z,28.45
2022-12-15T16:08:28.616Z,26.73
2022-12-15T16:12:42.205Z,26.45
2022-12-15T16:16:44.571Z,25.40
2022-12-15T16:20:50.216Z,26.25
2022-12-15T16:24:51.867Z,24.98
2022-12-15T16:28:54.057Z,25.88
2022-12-15T16:32:55.951Z,23.92
2022-12-15T16:36:58.299Z,27.17
2022-12-15T16:41:07.138Z,25.37
2022-12-15T16:45:15.631Z,26.75
2022-12-15T16:49:17.279Z,25.80
2022-12-15T16:53:27.506Z,26.92
2022-12-15T16:57:29.345Z,30.80
2022-12-15T17:01:34.226Z,31.58
2022-12-15T17:05:40.876Z,28.38
2022-12-15T17:09:42.518Z,26.10
2022-12-15T17:13:47.915Z,25.60
2022-12-15T17:17:50.842Z,24.33
2022-12-15T17:21:53.866Z,25.80
2022-12-15T17:30:18.212Z,28.48
2022-12-15T17:34:28.062Z,22.48
2022-12-15T17:38:30.135Z,24.10
2022-12-15T17:42:31.766Z,23.40
2022-12-15T17:46:33.469Z,23.15
2022-12-15T17:50:35.602Z,23.10
2022-12-15T17:54:37.449Z,23.60
2022-12-15T17:58:39.402Z,21.52
2022-12-15T18:02:41.143Z,24.77
2022-12-15T18:06:44.278Z,24.83
2022-12-15T18:10:48.410Z,24.45
2022-12-15T18:14:50.829Z,24.77
2022-12-15T18:18:52.609Z,25.50
2022-12-15T18:22:54.239Z,26.73
2022-12-15T18:26:56.030Z,28.27
2022-12-15T18:31:21.568Z,30.50
2022-12-15T18:35:32.574Z,28.20
2022-12-15T18:39:34.240Z,29.30
2022-12-15T18:43:36.130Z,27.15
2022-12-15T18:47:37.831Z,27.55
2022-12-15T18:51:39.638Z,26.75
2022-12-15T18:55:41.397Z,26.05
2022-12-15T18:59:43.104Z,27.35
2022-12-15T19:03:44.772Z,26.58
2022-12-15T19:07:46.413Z,24.33
2022-12-15T19:12:15.647Z,25.67
2022-12-15T19:16:19.750Z,25.40
2022-12-15T19:20:40.191Z,28.70
2022-12-15T19:24:54.032Z,27.67
2022-12-15T19:28:55.758Z,23.77
2022-12-15T19:32:57.435Z,25.75
2022-12-15T19:37:00.995Z,29.17
2022-12-15T19:41:02.611Z,27.15
2022-12-15T19:45:16.642Z,28.65
2022-12-15T19:49:18.343Z,28.05
2022-12-15T19:53:26.520Z,30.60
2022-12-15T19:57:28.139Z,25.12
2022-12-15T20:01:29.871Z,26.73
2022-12-15T20:05:32.744Z,24.95
2022-12-15T20:09:34.549Z,24.05
2022-12-15T20:13:36.579Z,26.70
2022-12-15T20:17:38.978Z,26.25
2022-12-15T20:21:41.462Z,23.80
2022-12-15T20:25:43.559Z,27.35
2022-12-15T20:29:45.306Z,28.85
2022-12-15T20:33:47.923Z,27.73
2022-12-15T20:37:50.111Z,28.95
2022-12-15T20:41:52.753Z,27.65
2022-12-15T20:46:07.348Z,34.70
2022-12-15T20:50:36.160Z,27.08
2022-12-15T20:54:37.809Z,23.90
2022-12-15T20:58:39.703Z,30.10
2022-12-15T21:02:43.089Z,27.40
2022-12-15T21:06:47.613Z,24.70
2022-12-15T21:10:55.766Z,25.23
2022-12-15T21:14:57.400Z,24.87
2022-12-15T21:19:19.710Z,22.75
2022-12-15T21:23:31.470Z,20.95
2022-12-15T21:27:33.091Z,23.65
2022-12-15T21:31:34.763Z,24.45
2022-12-15T21:35:38.083Z,24.05
2022-12-15T21:39:40.005Z,22.83
2022-12-15T21:43:42.282Z,23.67
2022-12-15T21:48:02.766Z,24.02
2022-12-15T21:52:04.645Z,22.33
2022-12-15T21:56:06.575Z,22.62
2022-12-15T22:00:13.380Z,22.65
2022-12-15T22:04:18.681Z,24.55
2022-12-15T22:08:23.749Z,22.77
2022-12-15T22:12:26.689Z,23.10
2022-12-15T22:16:28.405Z,22.37
2022-12-15T22:20:30.021Z,22.83
2022-12-15T22:24:31.682Z,21.87
2022-12-15T22:28:34.071Z,22.65
2022-12-15T22:32:36.376Z,25.10
2022-12-15T22:36:38.005Z,25.27
2022-12-15T22:40:39.926Z,24.05
2022-12-15T22:44:41.643Z,23.10
2022-12-15T22:48:47.266Z,21.40
2022-12-15T22:52:50.001Z,23.67
2022-12-15T22:57:04.339Z,22.85
2022-12-15T23:01:06.558Z,22.87
2022-12-15T23:05:09.200Z,22.62
2022-12-15T23:09:10.890Z,21.55
2022-12-15T23:13:12.529Z,22.25
2022-12-15T23:17:14.392Z,26.30
2022-12-15T23:21:16.670Z,26.52
2022-12-15T23:25:18.458Z,26.58
2022-12-15T23:29:20.242Z,22.80
2022-12-15T23:33:22.758Z,23.55
2022-12-15T23:37:24.406Z,22.25
2022-12-15T23:41:26.540Z,22.83
2022-12-15T23:45:28.204Z,23.38
2022-12-15T23:49:30.167Z,22.50
2022-12-15T23:53:32.978Z,22.80
2022-12-15T23:57:34.970Z,21.83
